Terminal Aerodrome Forecast
Issued by NWS

Home | Current Version | Previous Version | Text Only | Print | Product List | Glossary On
Versions: 1 2 3 4 5 6 7 8 9 10 11 12
089
FTUS43 KICT 031721
TAFHUT
TAF
KHUT 031721Z 0318/0418 13004KT P6SM -RA OVC015
     FM040000 11004KT 3SM -RA OVC015
     FM040100 VRB03KT 3SM -RA OVC008
     FM040600 VRB03KT 2SM -RA OVC008
     FM041200 28005KT P6SM SCT050=

USA.gov is the U.S. government's official web portal to all federal, state and local government web resources and services.